createdAt,value
2019-05-14T00:00:32.084Z,8.00
2019-05-14T00:03:02.140Z,7.90
2019-05-14T00:05:32.219Z,7.90
2019-05-14T00:08:02.299Z,7.90
2019-05-14T00:10:32.176Z,7.80
2019-05-14T00:13:01.688Z,7.80
2019-05-14T00:15:32.197Z,7.70
2019-05-14T00:18:01.230Z,7.70
2019-05-14T00:20:31.430Z,7.60
2019-05-14T00:23:01.445Z,7.60
2019-05-14T00:25:31.395Z,7.50
2019-05-14T00:28:01.388Z,7.50
2019-05-14T00:30:31.719Z,7.50
2019-05-14T00:33:01.258Z,7.40
2019-05-14T00:35:32.019Z,7.30
2019-05-14T00:38:01.266Z,7.30
2019-05-14T00:40:31.409Z,7.30
2019-05-14T00:43:02.465Z,7.30
2019-05-14T00:45:31.294Z,7.30
2019-05-14T00:48:01.518Z,7.20
2019-05-14T00:50:31.711Z,7.20
2019-05-14T00:53:01.990Z,7.20
2019-05-14T00:55:31.621Z,7.20
2019-05-14T00:58:02.337Z,7.10
2019-05-14T01:00:31.314Z,7.00
2019-05-14T01:03:01.913Z,7.00
2019-05-14T01:05:32.114Z,6.90
2019-05-14T01:08:01.978Z,7.00
2019-05-14T01:10:31.370Z,6.90
2019-05-14T01:13:01.172Z,6.80
2019-05-14T01:15:32.069Z,6.80
2019-05-14T01:18:02.232Z,6.80
2019-05-14T01:20:31.921Z,6.80
2019-05-14T01:23:02.273Z,6.70
2019-05-14T01:25:31.762Z,6.70
2019-05-14T01:28:02.143Z,6.70
2019-05-14T01:30:31.893Z,6.60
2019-05-14T01:33:01.813Z,6.60
2019-05-14T01:35:31.625Z,6.60
2019-05-14T01:38:02.458Z,6.60
2019-05-14T01:40:31.479Z,6.50
2019-05-14T01:43:02.410Z,6.50
2019-05-14T01:45:31.634Z,6.50
2019-05-14T01:48:01.274Z,6.50
2019-05-14T01:50:32.012Z,6.50
2019-05-14T01:53:01.202Z,6.50
2019-05-14T01:55:32.321Z,6.40
2019-05-14T01:58:02.125Z,6.40
2019-05-14T02:00:31.406Z,6.40
2019-05-14T02:03:01.767Z,6.40
2019-05-14T02:05:31.088Z,6.40
2019-05-14T02:08:01.705Z,6.30
2019-05-14T02:10:31.530Z,6.30
2019-05-14T02:13:02.004Z,6.30
2019-05-14T02:15:39.180Z,6.30
2019-05-14T02:18:02.317Z,6.30
2019-05-14T02:20:32.161Z,6.30
2019-05-14T02:23:01.486Z,6.30
2019-05-14T02:25:32.086Z,6.30
2019-05-14T02:28:01.357Z,6.20
2019-05-14T02:30:45.792Z,6.20
2019-05-14T02:33:00.228Z,6.20
2019-05-14T02:35:29.843Z,6.20
2019-05-14T02:37:59.589Z,6.20
2019-05-14T02:40:29.492Z,6.20
2019-05-14T02:42:59.271Z,6.10
2019-05-14T02:45:30.278Z,6.10
2019-05-14T02:48:00.444Z,6.10
2019-05-14T02:50:29.542Z,6.10
2019-05-14T02:52:59.801Z,6.00
2019-05-14T02:55:29.897Z,6.00
2019-05-14T02:57:59.818Z,6.00
2019-05-14T03:00:30.170Z,5.90
2019-05-14T03:02:59.894Z,5.90
2019-05-14T03:05:29.582Z,5.90
2019-05-14T03:07:59.816Z,5.90
2019-05-14T03:10:30.271Z,5.80
2019-05-14T03:12:59.109Z,5.80
2019-05-14T03:15:29.165Z,5.70
2019-05-14T03:17:59.884Z,5.70
2019-05-14T03:20:28.917Z,5.60
2019-05-14T03:23:05.010Z,5.60
2019-05-14T03:25:30.052Z,5.50
2019-05-14T03:27:59.993Z,5.50
2019-05-14T03:30:32.325Z,5.40
2019-05-14T03:33:02.819Z,5.40
2019-05-14T03:35:40.178Z,5.40
2019-05-14T03:38:00.371Z,5.30
2019-05-14T03:40:29.493Z,5.30
2019-05-14T03:42:59.826Z,5.30
2019-05-14T03:45:30.012Z,5.30
2019-05-14T03:47:58.986Z,5.30
2019-05-14T03:50:29.839Z,5.20
2019-05-14T03:52:59.439Z,5.30
2019-05-14T03:55:29.252Z,5.30
2019-05-14T03:57:59.549Z,5.30
2019-05-14T04:00:49.597Z,5.30
2019-05-14T04:03:19.781Z,5.30
2019-05-14T04:05:49.701Z,5.30
2019-05-14T04:08:21.310Z,5.30
2019-05-14T04:10:53.942Z,5.30
2019-05-14T04:13:22.452Z,5.30
2019-05-14T04:15:53.959Z,5.40
2019-05-14T04:18:28.605Z,5.40
2019-05-14T04:20:59.338Z,5.50
2019-05-14T04:23:28.919Z,5.50
2019-05-14T04:26:00.545Z,5.50
2019-05-14T04:28:31.279Z,5.60
2019-05-14T04:30:59.981Z,5.60
2019-05-14T04:33:30.268Z,5.70
2019-05-14T04:36:00.067Z,5.80
2019-05-14T04:38:29.887Z,5.80
2019-05-14T04:40:59.726Z,5.90
2019-05-14T04:43:29.346Z,6.00
2019-05-14T04:45:59.212Z,6.00
2019-05-14T04:48:36.372Z,6.00
2019-05-14T04:51:00.281Z,6.10
2019-05-14T04:53:30.946Z,6.10
2019-05-14T04:56:00.039Z,6.20
2019-05-14T04:58:29.833Z,6.30
2019-05-14T05:01:00.739Z,6.40
2019-05-14T05:03:31.435Z,6.60
2019-05-14T05:05:59.104Z,6.70
2019-05-14T05:08:30.704Z,6.70
2019-05-14T05:11:00.035Z,6.80
2019-05-14T05:13:29.128Z,6.90
2019-05-14T05:15:59.452Z,7.00
2019-05-14T05:18:29.614Z,7.10
2019-05-14T05:20:58.514Z,7.20
2019-05-14T05:23:28.232Z,7.30
2019-05-14T05:25:58.514Z,7.40
2019-05-14T05:28:28.340Z,7.50
2019-05-14T05:30:58.622Z,7.50
2019-05-14T05:33:29.425Z,7.60
2019-05-14T05:35:59.403Z,7.60
2019-05-14T05:38:29.184Z,7.60
2019-05-14T05:41:00.332Z,7.60
2019-05-14T05:43:28.632Z,7.70
2019-05-14T05:45:59.267Z,7.80
2019-05-14T05:48:28.604Z,8.00
2019-05-14T05:50:59.042Z,8.10
2019-05-14T05:53:28.745Z,8.20
2019-05-14T05:55:59.294Z,8.40
2019-05-14T05:58:29.827Z,8.50
2019-05-14T06:00:59.090Z,8.60
2019-05-14T06:03:30.165Z,8.60
2019-05-14T06:05:59.330Z,8.60
2019-05-14T06:08:28.254Z,8.70
2019-05-14T06:10:58.883Z,8.80
2019-05-14T06:13:28.762Z,8.80
2019-05-14T06:15:59.090Z,8.90
2019-05-14T06:18:28.624Z,9.00
2019-05-14T06:20:58.510Z,9.10
2019-05-14T06:23:28.473Z,9.20
2019-05-14T06:25:59.766Z,9.30
2019-05-14T06:28:32.487Z,9.30
2019-05-14T06:30:59.034Z,9.30
2019-05-14T06:33:28.596Z,9.40
2019-05-14T06:35:59.114Z,9.40
2019-05-14T06:38:29.436Z,9.40
2019-05-14T06:40:59.355Z,9.60
2019-05-14T06:43:28.712Z,9.80
2019-05-14T06:45:58.567Z,9.90
2019-05-14T06:48:33.639Z,9.90
2019-05-14T06:50:58.263Z,10.00
2019-05-14T06:53:29.094Z,10.00
2019-05-14T06:55:58.767Z,9.90
2019-05-14T06:58:29.753Z,10.00
2019-05-14T07:00:58.716Z,10.10
2019-05-14T07:03:28.102Z,10.30
2019-05-14T07:05:59.381Z,10.40
2019-05-14T07:08:28.457Z,10.50
2019-05-14T07:10:59.329Z,10.60
2019-05-14T07:13:29.208Z,10.60
2019-05-14T07:15:58.536Z,10.70
2019-05-14T07:18:30.224Z,10.70
2019-05-14T07:20:58.868Z,10.70
2019-05-14T07:23:28.928Z,10.70
2019-05-14T07:25:58.864Z,10.80
2019-05-14T07:28:28.832Z,10.90
2019-05-14T07:30:59.380Z,11.00
2019-05-14T07:33:29.391Z,11.10
2019-05-14T07:35:59.448Z,11.20
2019-05-14T07:38:28.391Z,11.30
2019-05-14T07:40:58.524Z,11.40
2019-05-14T07:43:28.640Z,11.30
2019-05-14T07:45:58.282Z,11.10
2019-05-14T07:48:28.734Z,11.10
2019-05-14T07:50:59.671Z,11.10
2019-05-14T07:53:36.273Z,11.10
2019-05-14T07:55:59.235Z,11.30
2019-05-14T07:58:28.251Z,11.50
2019-05-14T08:00:58.662Z,11.50
2019-05-14T08:03:28.534Z,11.50
2019-05-14T08:05:58.831Z,11.50
2019-05-14T08:08:29.257Z,11.50
2019-05-14T08:10:59.160Z,11.60
2019-05-14T08:13:28.464Z,11.70
2019-05-14T08:15:58.321Z,11.90
2019-05-14T08:18:29.124Z,12.10
2019-05-14T08:20:59.294Z,12.30
2019-05-14T08:23:28.213Z,12.30
2019-05-14T08:25:58.723Z,12.40
2019-05-14T08:28:28.867Z,12.50
2019-05-14T08:30:58.445Z,12.50
2019-05-14T08:33:29.093Z,12.40
2019-05-14T08:35:58.196Z,12.40
2019-05-14T08:38:28.468Z,12.40
2019-05-14T08:40:58.944Z,12.50
2019-05-14T08:43:29.203Z,12.50
2019-05-14T08:45:58.769Z,12.50
2019-05-14T08:48:29.682Z,12.60
2019-05-14T08:50:58.787Z,12.70
2019-05-14T08:53:28.848Z,12.80
2019-05-14T08:55:58.893Z,12.70
2019-05-14T08:58:29.841Z,12.70
2019-05-14T09:00:58.759Z,12.80
2019-05-14T09:03:28.780Z,13.10
2019-05-14T09:06:00.493Z,13.10
2019-05-14T09:08:28.485Z,12.90
2019-05-14T09:10:59.000Z,12.90
2019-05-14T09:13:28.992Z,13.00
2019-05-14T09:15:58.232Z,13.00
2019-05-14T09:18:29.144Z,12.90
2019-05-14T09:20:58.217Z,12.90
2019-05-14T09:23:28.666Z,13.00
2019-05-14T09:25:58.768Z,13.20
2019-05-14T09:28:28.556Z,13.50
2019-05-14T09:30:59.333Z,13.50
2019-05-14T09:33:29.695Z,13.50
2019-05-14T09:36:11.119Z,13.60
2019-05-14T09:38:29.334Z,13.90
2019-05-14T09:41:08.122Z,14.00
2019-05-14T09:43:28.685Z,13.90
2019-05-14T09:45:58.682Z,13.60
2019-05-14T09:48:28.613Z,13.40
2019-05-14T09:50:58.614Z,13.30
2019-05-14T09:53:28.888Z,13.30
2019-05-14T09:55:58.357Z,13.10
2019-05-14T09:58:28.274Z,13.00
2019-05-14T10:00:59.025Z,12.90
2019-05-14T10:03:27.002Z,13.00
2019-05-14T10:05:58.242Z,12.90
2019-05-14T10:08:25.664Z,12.90
2019-05-14T10:10:54.096Z,13.00
2019-05-14T10:13:22.540Z,13.00
2019-05-14T10:15:51.738Z,13.20
2019-05-14T10:18:20.194Z,13.40
2019-05-14T10:20:49.505Z,13.20
2019-05-14T10:23:18.888Z,13.10
2019-05-14T10:25:47.581Z,13.00
2019-05-14T10:28:16.099Z,12.90
2019-05-14T10:30:44.630Z,13.10
2019-05-14T10:33:14.966Z,13.30
2019-05-14T10:35:43.333Z,13.60
2019-05-14T10:38:11.787Z,13.60
2019-05-14T10:40:40.236Z,13.50
2019-05-14T10:43:09.237Z,13.30
2019-05-14T10:45:38.518Z,13.30
2019-05-14T10:48:09.522Z,13.20
2019-05-14T10:50:55.158Z,13.30
2019-05-14T10:53:09.054Z,13.40
2019-05-14T10:55:38.621Z,13.50
2019-05-14T10:58:08.884Z,13.50
2019-05-14T11:00:41.525Z,13.40
2019-05-14T11:03:07.758Z,13.40
2019-05-14T11:05:40.780Z,13.50
2019-05-14T11:08:06.418Z,13.50
2019-05-14T11:10:35.113Z,13.70
2019-05-14T11:13:03.621Z,13.90
2019-05-14T11:15:32.139Z,14.20
2019-05-14T11:18:00.558Z,14.40
2019-05-14T11:20:31.117Z,14.30
2019-05-14T11:22:59.214Z,14.10
2019-05-14T11:25:28.762Z,13.80
2019-05-14T11:27:58.624Z,13.60
2019-05-14T11:30:28.822Z,13.60
2019-05-14T11:32:58.480Z,13.50
2019-05-14T11:35:28.787Z,13.40
2019-05-14T11:37:58.835Z,13.20
2019-05-14T11:40:29.409Z,13.20
2019-05-14T11:42:59.222Z,13.20
2019-05-14T11:45:28.076Z,13.10
2019-05-14T11:47:58.412Z,13.10
2019-05-14T11:50:28.673Z,13.10
2019-05-14T11:52:58.467Z,13.10
2019-05-14T11:55:27.165Z,13.00
2019-05-14T11:57:58.032Z,13.00
2019-05-14T12:00:29.183Z,13.00
2019-05-14T12:02:58.444Z,13.00
2019-05-14T12:05:26.538Z,13.10
2019-05-14T12:07:55.119Z,13.00
2019-05-14T12:10:23.575Z,12.70
2019-05-14T12:12:52.050Z,12.50
2019-05-14T12:15:20.507Z,12.40
2019-05-14T12:17:51.031Z,12.40
2019-05-14T12:20:19.194Z,12.30
2019-05-14T12:22:48.818Z,12.40
2019-05-14T12:25:18.841Z,12.40
2019-05-14T12:27:49.535Z,12.50
2019-05-14T12:30:19.634Z,12.70
2019-05-14T12:32:50.109Z,12.80
2019-05-14T12:35:19.846Z,13.00
2019-05-14T12:37:48.496Z,13.20
2019-05-14T12:40:19.326Z,13.30
2019-05-14T12:42:49.623Z,13.50
2019-05-14T12:45:19.005Z,13.70
2019-05-14T12:47:50.027Z,13.80
2019-05-14T12:50:18.343Z,13.70
2019-05-14T12:52:48.569Z,13.80
2019-05-14T12:55:19.578Z,13.70
2019-05-14T12:57:48.591Z,13.80
2019-05-14T13:00:18.082Z,13.80
2019-05-14T13:02:46.525Z,13.70
2019-05-14T13:05:15.192Z,13.70
2019-05-14T13:07:43.645Z,13.70
2019-05-14T13:10:13.356Z,13.70
2019-05-14T13:12:41.831Z,13.60
2019-05-14T13:15:10.587Z,13.50
2019-05-14T13:17:39.152Z,13.40
2019-05-14T13:20:13.572Z,13.30
2019-05-14T13:22:45.631Z,13.30
2019-05-14T13:25:10.936Z,13.40
2019-05-14T13:27:39.791Z,13.40
2019-05-14T13:30:09.287Z,13.40
2019-05-14T13:32:39.323Z,13.20
2019-05-14T13:35:13.094Z,13.20
2019-05-14T13:37:39.867Z,13.00
2019-05-14T13:40:09.377Z,13.00
2019-05-14T13:42:39.879Z,13.10
2019-05-14T13:45:10.330Z,13.20
2019-05-14T13:47:38.905Z,13.40
2019-05-14T13:50:08.517Z,13.60
2019-05-14T13:52:40.517Z,13.40
2019-05-14T13:55:09.592Z,13.30
2019-05-14T13:57:39.766Z,13.40
2019-05-14T14:00:11.697Z,13.40
2019-05-14T14:02:39.278Z,13.50
2019-05-14T14:05:08.585Z,13.50
2019-05-14T14:07:39.618Z,13.30
2019-05-14T14:10:09.051Z,13.00
2019-05-14T14:12:40.350Z,12.90
2019-05-14T14:15:09.805Z,13.00
2019-05-14T14:17:39.299Z,13.10
2019-05-14T14:20:08.454Z,13.40
2019-05-14T14:22:40.067Z,13.60
2019-05-14T14:25:09.001Z,13.80
2019-05-14T14:27:40.806Z,13.90
2019-05-14T14:30:09.241Z,13.80
2019-05-14T14:32:40.693Z,13.60
2019-05-14T14:35:09.333Z,13.50
2019-05-14T14:37:39.684Z,13.60
2019-05-14T14:40:09.899Z,13.70
2019-05-14T14:42:39.971Z,13.60
2019-05-14T14:45:09.745Z,13.50
2019-05-14T14:47:39.386Z,13.40
2019-05-14T14:50:09.014Z,13.50
2019-05-14T14:52:37.470Z,13.50
2019-05-14T14:55:06.442Z,13.40
2019-05-14T14:57:34.911Z,13.40
2019-05-14T15:00:04.144Z,13.30
2019-05-14T15:02:32.614Z,13.30
2019-05-14T15:05:01.057Z,13.10
2019-05-14T15:07:30.286Z,13.00
2019-05-14T15:09:59.643Z,12.80
2019-05-14T15:12:29.088Z,12.70
2019-05-14T15:14:59.320Z,12.80
2019-05-14T15:17:29.515Z,12.90
2019-05-14T15:19:59.404Z,12.90
2019-05-14T15:22:31.052Z,13.00
2019-05-14T15:24:58.739Z,13.10
2019-05-14T15:27:28.231Z,13.00
2019-05-14T15:29:59.127Z,12.90
2019-05-14T15:32:29.983Z,12.80
2019-05-14T15:34:59.327Z,12.70
2019-05-14T15:37:31.235Z,12.70
2019-05-14T15:39:57.552Z,12.80
2019-05-14T15:42:28.141Z,12.90
2019-05-14T15:44:59.573Z,12.90
2019-05-14T15:47:26.359Z,13.10
2019-05-14T15:49:54.900Z,13.20
2019-05-14T15:52:23.325Z,13.00
2019-05-14T15:54:51.864Z,12.80
2019-05-14T15:57:20.330Z,12.60
2019-05-14T15:59:48.925Z,12.50
2019-05-14T16:02:20.082Z,12.50
2019-05-14T16:04:47.542Z,12.60
2019-05-14T16:07:18.443Z,12.60
2019-05-14T16:09:49.127Z,12.70
2019-05-14T16:12:16.353Z,12.60
2019-05-14T16:14:44.889Z,12.50
2019-05-14T16:17:15.657Z,12.50
2019-05-14T16:19:43.674Z,12.40
2019-05-14T16:22:12.094Z,12.30
2019-05-14T16:24:55.819Z,12.10
2019-05-14T16:27:10.715Z,12.10
2019-05-14T16:29:45.502Z,12.00
2019-05-14T16:32:09.471Z,11.90
2019-05-14T16:34:40.987Z,11.80
2019-05-14T16:37:11.042Z,11.70
2019-05-14T16:39:39.171Z,11.70
2019-05-14T16:42:07.737Z,11.60
2019-05-14T16:44:36.202Z,11.60
2019-05-14T16:47:04.636Z,11.70
2019-05-14T16:49:34.130Z,11.80
2019-05-14T16:52:02.729Z,11.80
2019-05-14T16:54:31.261Z,11.90
2019-05-14T16:56:59.774Z,11.90
2019-05-14T16:59:29.505Z,11.80
2019-05-14T17:01:58.613Z,11.80
2019-05-14T17:04:29.243Z,11.70
2019-05-14T17:06:58.935Z,11.70
2019-05-14T17:09:28.242Z,11.60
2019-05-14T17:11:58.836Z,11.50
2019-05-14T17:14:29.328Z,11.50
2019-05-14T17:16:59.470Z,11.50
2019-05-14T17:19:29.639Z,11.40
2019-05-14T17:21:59.422Z,11.40
2019-05-14T17:24:29.125Z,11.30
2019-05-14T17:26:58.357Z,11.30
2019-05-14T17:29:28.630Z,11.20
2019-05-14T17:31:57.256Z,11.20
2019-05-14T17:34:25.714Z,11.10
2019-05-14T17:36:54.157Z,11.10
2019-05-14T17:39:22.689Z,11.00
2019-05-14T17:41:51.129Z,11.00
2019-05-14T17:44:19.557Z,11.00
2019-05-14T17:46:48.904Z,10.90
2019-05-14T17:49:19.219Z,10.90
2019-05-14T17:51:48.448Z,10.80
2019-05-14T17:54:18.532Z,10.70
2019-05-14T17:56:48.622Z,10.70
2019-05-14T17:59:18.967Z,10.70
2019-05-14T18:01:47.389Z,10.70
2019-05-14T18:04:18.223Z,10.60
2019-05-14T18:06:48.670Z,10.60
2019-05-14T18:09:16.146Z,10.50
2019-05-14T18:11:44.601Z,10.50
2019-05-14T18:14:13.026Z,10.50
2019-05-14T18:16:41.497Z,10.40
2019-05-14T18:19:09.952Z,10.40
2019-05-14T18:21:38.946Z,10.40
2019-05-14T18:24:07.584Z,10.30
2019-05-14T18:26:36.517Z,10.30
2019-05-14T18:29:08.615Z,10.20
2019-05-14T18:31:43.212Z,10.20
2019-05-14T18:34:06.563Z,10.10
2019-05-14T18:36:34.990Z,10.10
2019-05-14T18:39:04.487Z,10.10
2019-05-14T18:41:32.942Z,10.00
2019-05-14T18:44:01.398Z,9.90
2019-05-14T18:46:29.905Z,9.90
2019-05-14T18:48:59.227Z,9.80
2019-05-14T18:51:28.731Z,9.80
2019-05-14T18:53:58.458Z,9.70
2019-05-14T18:56:29.178Z,9.70
2019-05-14T18:58:57.422Z,9.60
2019-05-14T19:01:28.609Z,9.60
2019-05-14T19:03:58.740Z,9.50
2019-05-14T19:06:28.341Z,9.50
2019-05-14T19:08:56.394Z,9.40
2019-05-14T19:11:24.881Z,9.40
2019-05-14T19:13:53.331Z,9.30
2019-05-14T19:16:21.799Z,9.30
2019-05-14T19:18:50.237Z,9.20
2019-05-14T19:21:18.675Z,9.20
2019-05-14T19:23:48.979Z,9.10
2019-05-14T19:26:31.566Z,9.10
2019-05-14T19:28:48.517Z,9.00
2019-05-14T19:31:18.341Z,9.00
2019-05-14T19:33:48.795Z,9.00
2019-05-14T19:36:18.742Z,8.90
2019-05-14T19:38:48.117Z,8.90
2019-05-14T19:41:18.850Z,8.80
2019-05-14T19:43:46.870Z,8.80
2019-05-14T19:46:15.302Z,8.70
2019-05-14T19:48:43.770Z,8.70
2019-05-14T19:51:12.286Z,8.70
2019-05-14T19:53:40.725Z,8.60
2019-05-14T19:56:09.257Z,8.50
2019-05-14T19:58:38.314Z,8.50
2019-05-14T20:01:09.155Z,8.50
2019-05-14T20:03:37.397Z,8.40
2019-05-14T20:06:05.828Z,8.40
2019-05-14T20:08:34.290Z,8.30
2019-05-14T20:11:02.785Z,8.20
2019-05-14T20:13:31.272Z,8.20
2019-05-14T20:15:59.711Z,8.20
2019-05-14T20:18:28.964Z,8.10
2019-05-14T20:20:59.077Z,8.10
2019-05-14T20:23:29.074Z,8.00
2019-05-14T20:25:58.703Z,8.00
2019-05-14T20:28:27.244Z,8.10
2019-05-14T20:30:58.435Z,7.90
2019-05-14T20:33:25.890Z,7.90
2019-05-14T20:35:54.323Z,7.80
2019-05-14T20:38:22.774Z,7.70
2019-05-14T20:40:51.242Z,7.70
2019-05-14T20:43:19.694Z,7.60
2019-05-14T20:45:48.825Z,7.60
2019-05-14T20:48:18.833Z,7.50
2019-05-14T20:50:47.565Z,7.50
2019-05-14T20:53:18.274Z,7.40
2019-05-14T20:55:46.176Z,7.40
2019-05-14T20:58:14.616Z,7.30
2019-05-14T21:00:43.053Z,7.30
2019-05-14T21:03:11.497Z,7.30
2019-05-14T21:05:42.283Z,7.20
2019-05-14T21:08:13.521Z,7.20
2019-05-14T21:10:40.294Z,7.10
2019-05-14T21:13:08.831Z,7.10
2019-05-14T21:15:39.131Z,7.10
2019-05-14T21:18:08.365Z,7.00
2019-05-14T21:20:39.137Z,7.00
2019-05-14T21:23:08.986Z,6.90
2019-05-14T21:25:38.717Z,6.90
2019-05-14T21:28:09.340Z,6.80
2019-05-14T21:30:38.759Z,6.80
2019-05-14T21:33:08.465Z,6.70
2019-05-14T21:35:39.037Z,6.70
2019-05-14T21:38:09.190Z,6.70
2019-05-14T21:40:38.898Z,6.60
2019-05-14T21:43:11.061Z,6.60
2019-05-14T21:45:38.342Z,6.50
2019-05-14T21:48:08.618Z,6.50
2019-05-14T21:50:38.753Z,6.50
2019-05-14T21:53:08.438Z,6.40
2019-05-14T21:55:38.840Z,6.40
2019-05-14T21:58:09.081Z,6.30
2019-05-14T22:00:42.516Z,6.30
2019-05-14T22:03:11.030Z,6.20
2019-05-14T22:05:39.620Z,6.20
2019-05-14T22:08:08.833Z,6.20
2019-05-14T22:10:39.743Z,6.10
2019-05-14T22:13:07.662Z,6.10
2019-05-14T22:15:38.611Z,4.90
2019-05-14T22:18:14.970Z,6.00
2019-05-14T22:20:38.519Z,6.00
2019-05-14T22:23:08.658Z,5.90
2019-05-14T22:25:39.172Z,5.80
2019-05-14T22:28:12.300Z,5.80
2019-05-14T22:30:38.872Z,5.80
2019-05-14T22:33:08.407Z,5.70
2019-05-14T22:35:39.694Z,5.70
2019-05-14T22:38:07.483Z,5.60
2019-05-14T22:40:35.932Z,5.70
2019-05-14T22:43:04.369Z,5.60
2019-05-14T22:45:32.877Z,5.60
2019-05-14T22:48:01.319Z,5.60
2019-05-14T22:50:29.768Z,5.50
2019-05-14T22:52:58.591Z,5.50
2019-05-14T22:55:28.962Z,5.50
2019-05-14T22:57:59.318Z,5.50
2019-05-14T23:00:28.611Z,5.40
2019-05-14T23:02:57.396Z,5.40
2019-05-14T23:05:25.832Z,5.40
2019-05-14T23:07:54.277Z,5.40
2019-05-14T23:10:22.797Z,5.40
2019-05-14T23:12:51.217Z,5.40
2019-05-14T23:15:19.739Z,5.40
2019-05-14T23:17:48.234Z,5.30
2019-05-14T23:20:19.394Z,5.30
2019-05-14T23:22:49.091Z,5.30
2019-05-14T23:25:18.526Z,5.30
2019-05-14T23:27:48.177Z,5.30
2019-05-14T23:30:20.011Z,5.30
2019-05-14T23:32:49.138Z,5.30
2019-05-14T23:35:18.727Z,5.20
2019-05-14T23:37:48.826Z,5.20
2019-05-14T23:40:17.583Z,5.20
2019-05-14T23:42:48.788Z,5.20
2019-05-14T23:45:16.228Z,5.20
2019-05-14T23:47:45.347Z,5.20
2019-05-14T23:50:13.938Z,5.20
2019-05-14T23:52:42.435Z,5.10
2019-05-14T23:55:11.503Z,5.10
2019-05-14T23:57:39.948Z,5.10
